Time;durP1;ratioP1;P1;durP2;ratioP2;P2;SDS_P1;SDS_P2;PMS_P1;PMS_P2;Temp;Humidity;BMP_temperature;BMP_pressure;BME280_temperature;BME280_humidity;BME280_pressure;Samples;Min_cycle;Max_cycle;Signal;HPM_P1;HPM_P2
2022/10/01 00:02:56;;;;;;;149.55;41.63;;;;;;;;;;6166626;28;20535;-65
2022/10/01 00:06:04;;;;;;;149.30;42.42;;;;;;;;;;6165807;28;20042;-67
2022/10/01 00:09:05;;;;;;;143.57;42.17;;;;;;;;;;6165609;28;20046;-66
2022/10/01 00:12:06;;;;;;;148.77;41.45;;;;;;;;;;6166712;28;20077;-65
2022/10/01 00:15:08;;;;;;;146.47;41.80;;;;;;;;;;6176050;28;20516;-67
2022/10/01 00:18:09;;;;;;;147.73;42.90;;;;;;;;;;6175502;28;20674;-67
2022/10/01 00:21:16;;;;;;;144.40;41.25;;;;;;;;;;6163654;28;20058;-63
2022/10/01 00:24:17;;;;;;;136.50;38.08;;;;;;;;;;6164223;28;20066;-65
2022/10/01 00:27:18;;;;;;;142.85;41.53;;;;;;;;;;6163509;28;20055;-66
2022/10/01 00:30:19;;;;;;;135.95;39.05;;;;;;;;;;6163054;28;20055;-67
2022/10/01 00:33:19;;;;;;;139.80;39.50;;;;;;;;;;6164894;28;20501;-67
2022/10/01 00:36:20;;;;;;;138.95;40.40;;;;;;;;;;6163817;28;20106;-67
2022/10/01 00:39:22;;;;;;;138.17;38.80;;;;;;;;;;6164611;28;20141;-66
2022/10/01 00:42:25;;;;;;;142.83;41.23;;;;;;;;;;6165989;28;20079;-67
2022/10/01 00:45:26;;;;;;;140.30;40.60;;;;;;;;;;6163588;28;20359;-68
2022/10/01 00:48:29;;;;;;;133.55;38.90;;;;;;;;;;6163424;28;20134;-67
2022/10/01 00:51:37;;;;;;;129.60;37.70;;;;;;;;;;6163734;28;20071;-67
2022/10/01 00:54:48;;;;;;;136.45;40.00;;;;;;;;;;6165181;28;20058;-67
2022/10/01 00:57:49;;;;;;;145.95;40.47;;;;;;;;;;6164063;28;20081;-68
2022/10/01 01:00:52;;;;;;;139.70;39.80;;;;;;;;;;6164238;28;20050;-65
2022/10/01 01:03:53;;;;;;;144.73;40.88;;;;;;;;;;6165660;28;20070;-66
2022/10/01 01:07:00;;;;;;;141.23;39.55;;;;;;;;;;6163362;28;20118;-67
2022/10/01 01:10:03;;;;;;;137.85;42.08;;;;;;;;;;6163231;28;20173;-66
2022/10/01 01:13:09;;;;;;;135.38;41.60;;;;;;;;;;6165377;28;20113;-66
2022/10/01 01:16:37;;;;;;;133.93;39.65;;;;;;;;;;6165199;28;20493;-66
2022/10/01 01:19:56;;;;;;;140.65;42.50;;;;;;;;;;6163937;28;20054;-67
2022/10/01 01:23:15;;;;;;;141.18;40.95;;;;;;;;;;6169783;28;20133;-66
2022/10/01 01:26:33;;;;;;;138.82;39.13;;;;;;;;;;6157510;28;20047;-67
2022/10/01 01:29:42;;;;;;;135.85;39.42;;;;;;;;;;6171033;28;20529;-67
2022/10/01 01:32:48;;;;;;;137.65;39.10;;;;;;;;;;6169527;28;20081;-68
2022/10/01 01:35:59;;;;;;;137.82;38.67;;;;;;;;;;6165897;28;20783;-66
2022/10/01 01:39:04;;;;;;;130.73;38.40;;;;;;;;;;6164597;28;20046;-65
2022/10/01 01:42:12;;;;;;;135.35;39.40;;;;;;;;;;6163851;28;20134;-68
2022/10/01 01:45:17;;;;;;;132.85;37.40;;;;;;;;;;6162406;28;20055;-68
2022/10/01 01:48:18;;;;;;;138.52;38.78;;;;;;;;;;6163942;28;20081;-67
2022/10/01 01:51:38;;;;;;;125.97;37.65;;;;;;;;;;6163901;28;20484;-68
2022/10/01 01:54:39;;;;;;;125.75;36.47;;;;;;;;;;6163087;28;20074;-66
2022/10/01 01:57:43;;;;;;;115.75;34.55;;;;;;;;;;6162113;28;20046;-67
2022/10/01 02:00:46;;;;;;;121.82;35.53;;;;;;;;;;6163781;28;20077;-66
2022/10/01 02:03:47;;;;;;;116.35;34.75;;;;;;;;;;6161232;28;20070;-64
2022/10/01 02:07:14;;;;;;;129.05;37.40;;;;;;;;;;6161044;28;20053;-66
2022/10/01 02:10:43;;;;;;;124.80;36.40;;;;;;;;;;6161980;28;20379;-66
2022/10/01 02:14:14;;;;;;;127.68;35.88;;;;;;;;;;6161950;28;20472;-68
2022/10/01 02:17:19;;;;;;;118.97;33.97;;;;;;;;;;6161211;28;20422;-65
2022/10/01 02:20:29;;;;;;;118.38;34.33;;;;;;;;;;6163631;28;20082;-67
2022/10/01 02:23:36;;;;;;;123.55;35.05;;;;;;;;;;6162608;28;20059;-67
2022/10/01 02:26:37;;;;;;;122.97;34.55;;;;;;;;;;6163082;28;20598;-64
2022/10/01 02:29:39;;;;;;;122.63;35.90;;;;;;;;;;6162879;28;20494;-66
2022/10/01 02:32:43;;;;;;;122.97;34.78;;;;;;;;;;6161835;28;20469;-67
2022/10/01 02:35:46;;;;;;;120.75;36.45;;;;;;;;;;6162523;28;20042;-67
2022/10/01 02:38:49;;;;;;;130.93;38.13;;;;;;;;;;6162702;28;20101;-67
2022/10/01 02:41:52;;;;;;;123.50;34.58;;;;;;;;;;6162764;28;20984;-67
2022/10/01 02:44:55;;;;;;;126.15;35.85;;;;;;;;;;6161221;28;20090;-65
2022/10/01 02:48:03;;;;;;;128.80;39.15;;;;;;;;;;6162246;28;20034;-65
2022/10/01 02:51:47;;;;;;;123.82;38.22;;;;;;;;;;6161701;28;20035;-66
2022/10/01 02:55:09;;;;;;;129.55;39.42;;;;;;;;;;6161838;28;20046;-66
2022/10/01 02:58:10;;;;;;;121.87;37.80;;;;;;;;;;6159393;28;20141;-66
2022/10/01 03:01:11;;;;;;;118.77;39.00;;;;;;;;;;6162856;28;20101;-65
2022/10/01 03:04:12;;;;;;;137.45;39.92;;;;;;;;;;6162326;28;20055;-69
2022/10/01 03:07:13;;;;;;;135.15;41.55;;;;;;;;;;6159450;28;20051;-68
2022/10/01 03:10:15;;;;;;;132.38;40.47;;;;;;;;;;6160914;28;21719;-68
2022/10/01 03:13:17;;;;;;;132.40;38.17;;;;;;;;;;6162979;28;20051;-67
2022/10/01 03:16:18;;;;;;;148.43;44.13;;;;;;;;;;6160549;28;20058;-68
2022/10/01 03:19:19;;;;;;;154.60;43.33;;;;;;;;;;6161293;28;20570;-68
2022/10/01 03:22:21;;;;;;;145.15;39.50;;;;;;;;;;6159399;28;20138;-67
2022/10/01 03:25:21;;;;;;;159.70;40.47;;;;;;;;;;6160638;28;20130;-66
2022/10/01 03:28:22;;;;;;;162.02;40.75;;;;;;;;;;6160682;28;20621;-66
2022/10/01 03:31:23;;;;;;;241.00;42.33;;;;;;;;;;6162825;28;20145;-68
2022/10/01 03:34:23;;;;;;;159.38;41.60;;;;;;;;;;6160409;28;20062;-67
2022/10/01 03:37:24;;;;;;;155.60;40.60;;;;;;;;;;6158605;28;20057;-65
2022/10/01 03:40:25;;;;;;;157.40;39.85;;;;;;;;;;6162371;28;20050;-68
2022/10/01 03:43:27;;;;;;;283.08;42.92;;;;;;;;;;6164327;28;20058;-67
2022/10/01 03:46:29;;;;;;;194.65;42.15;;;;;;;;;;6161537;28;20134;-66
2022/10/01 03:49:29;;;;;;;244.95;40.60;;;;;;;;;;6164485;28;20058;-66
2022/10/01 03:52:31;;;;;;;171.63;40.30;;;;;;;;;;6165915;28;20063;-66
2022/10/01 03:55:31;;;;;;;234.82;39.53;;;;;;;;;;6167238;28;20487;-69
2022/10/01 03:58:32;;;;;;;183.20;38.22;;;;;;;;;;6163450;28;20109;-66
2022/10/01 04:01:33;;;;;;;205.57;39.75;;;;;;;;;;6169513;28;20069;-67
2022/10/01 04:04:33;;;;;;;167.55;39.03;;;;;;;;;;6166236;28;20189;-67
2022/10/01 04:07:34;;;;;;;210.80;39.28;;;;;;;;;;6164603;28;20137;-64
2022/10/01 04:10:35;;;;;;;201.48;40.75;;;;;;;;;;6168496;28;20531;-66
2022/10/01 04:13:35;;;;;;;228.90;41.67;;;;;;;;;;6169542;28;20050;-66
2022/10/01 04:16:36;;;;;;;185.80;39.08;;;;;;;;;;6167762;28;20450;-67
2022/10/01 04:19:36;;;;;;;168.18;37.15;;;;;;;;;;6167663;28;21258;-66
2022/10/01 04:22:40;;;;;;;270.40;40.45;;;;;;;;;;6169878;28;20082;-64
2022/10/01 04:25:41;;;;;;;211.25;39.65;;;;;;;;;;6179826;28;20078;-66
2022/10/01 04:28:44;;;;;;;174.13;40.92;;;;;;;;;;6171741;28;20043;-68
2022/10/01 04:31:44;;;;;;;167.55;39.85;;;;;;;;;;6167675;28;20043;-68
2022/10/01 04:34:53;;;;;;;151.98;40.22;;;;;;;;;;6166590;28;20124;-68
2022/10/01 04:38:02;;;;;;;159.18;40.47;;;;;;;;;;6163227;28;20394;-68
2022/10/01 04:41:03;;;;;;;151.55;37.50;;;;;;;;;;6165472;28;20058;-68
2022/10/01 04:44:04;;;;;;;152.73;38.10;;;;;;;;;;6164979;28;20142;-67
2022/10/01 04:47:05;;;;;;;169.10;40.70;;;;;;;;;;6164187;28;20160;-67
2022/10/01 04:50:06;;;;;;;131.32;37.63;;;;;;;;;;6165047;28;20050;-67
2022/10/01 04:53:06;;;;;;;144.27;39.08;;;;;;;;;;6163053;28;20149;-66
2022/10/01 04:56:07;;;;;;;165.45;42.80;;;;;;;;;;6164630;28;20074;-67
2022/10/01 04:59:08;;;;;;;157.57;43.55;;;;;;;;;;6162485;28;20202;-64
2022/10/01 05:02:08;;;;;;;176.65;42.78;;;;;;;;;;6165535;28;20059;-67
2022/10/01 05:05:09;;;;;;;176.23;42.83;;;;;;;;;;6166101;28;20050;-67
2022/10/01 05:08:09;;;;;;;161.20;43.97;;;;;;;;;;6162864;28;20155;-66
2022/10/01 05:11:10;;;;;;;176.82;41.53;;;;;;;;;;6162129;28;20046;-64
2022/10/01 05:14:14;;;;;;;148.52;39.17;;;;;;;;;;6164902;28;20038;-66
2022/10/01 05:17:16;;;;;;;155.93;42.35;;;;;;;;;;6162587;28;20145;-68
2022/10/01 05:20:22;;;;;;;156.27;42.00;;;;;;;;;;6164813;28;20153;-65
2022/10/01 05:23:23;;;;;;;162.77;41.78;;;;;;;;;;6167781;28;20141;-67
2022/10/01 05:26:24;;;;;;;151.45;43.22;;;;;;;;;;6168604;28;20042;-68
2022/10/01 05:29:25;;;;;;;177.35;44.70;;;;;;;;;;6169896;28;20066;-68
2022/10/01 05:32:25;;;;;;;164.40;45.67;;;;;;;;;;6169586;28;20050;-68
2022/10/01 05:35:26;;;;;;;168.40;47.35;;;;;;;;;;6169515;28;20454;-68
2022/10/01 05:38:27;;;;;;;165.48;44.17;;;;;;;;;;6167885;28;20050;-67
2022/10/01 05:41:27;;;;;;;146.13;41.83;;;;;;;;;;6169323;28;20055;-65
2022/10/01 05:44:28;;;;;;;158.98;42.53;;;;;;;;;;6169270;28;20139;-67
2022/10/01 05:47:28;;;;;;;158.25;45.88;;;;;;;;;;6168106;28;20070;-66
2022/10/01 05:50:31;;;;;;;168.15;48.90;;;;;;;;;;6169133;28;20054;-67
2022/10/01 05:53:31;;;;;;;;;;;;;;;;;;6168837;28;20137;-67
2022/10/01 05:56:32;;;;;;;156.55;45.60;;;;;;;;;;6168670;28;19922;-67
2022/10/01 05:59:33;;;;;;;160.25;44.85;;;;;;;;;;6179693;28;20490;-67
2022/10/01 06:02:33;;;;;;;161.52;49.22;;;;;;;;;;6170194;28;20047;-64
2022/10/01 06:05:35;;;;;;;164.00;46.70;;;;;;;;;;6168158;28;20467;-68
2022/10/01 06:08:36;;;;;;;163.10;43.67;;;;;;;;;;6167297;28;20062;-67
2022/10/01 06:11:38;;;;;;;171.02;46.85;;;;;;;;;;6168224;28;20138;-64
2022/10/01 06:14:38;;;;;;;164.82;47.03;;;;;;;;;;6167433;28;20043;-68
2022/10/01 06:17:43;;;;;;;150.20;43.90;;;;;;;;;;6166097;28;20073;-68
2022/10/01 06:20:44;;;;;;;166.38;48.00;;;;;;;;;;6165371;28;20485;-68
2022/10/01 06:23:45;;;;;;;158.73;46.60;;;;;;;;;;6168569;28;20098;-68
2022/10/01 06:26:47;;;;;;;164.77;46.70;;;;;;;;;;6166867;28;20047;-68
2022/10/01 06:29:47;;;;;;;163.98;45.30;;;;;;;;;;6166269;28;20541;-68
2022/10/01 06:32:48;;;;;;;147.57;43.78;;;;;;;;;;6168464;28;20043;-67
2022/10/01 06:35:50;;;;;;;153.63;42.60;;;;;;;;;;6173781;28;20070;-65
2022/10/01 06:38:51;;;;;;;155.00;41.13;;;;;;;;;;6168311;28;20054;-68
2022/10/01 06:41:51;;;;;;;146.70;43.53;;;;;;;;;;6161538;28;20050;-67
2022/10/01 06:44:52;;;;;;;164.35;46.15;;;;;;;;;;6160229;28;20050;-68
2022/10/01 06:47:58;;;;;;;156.20;42.05;;;;;;;;;;6159851;28;20121;-66
2022/10/01 06:50:59;;;;;;;167.20;46.08;;;;;;;;;;6161786;28;20153;-68
2022/10/01 06:54:00;;;;;;;162.05;45.25;;;;;;;;;;6162830;28;20159;-68
2022/10/01 06:57:00;;;;;;;161.20;47.08;;;;;;;;;;6162273;28;20042;-67
2022/10/01 07:00:02;;;;;;;160.40;46.45;;;;;;;;;;6164236;28;20101;-64
2022/10/01 07:03:09;;;;;;;155.27;44.40;;;;;;;;;;6165054;28;20054;-69
2022/10/01 07:06:10;;;;;;;158.75;45.20;;;;;;;;;;6168214;28;20050;-68
2022/10/01 07:09:10;;;;;;;159.05;44.25;;;;;;;;;;6166967;28;20035;-67
2022/10/01 07:12:11;;;;;;;152.27;43.42;;;;;;;;;;6177112;28;20498;-64
2022/10/01 07:15:12;;;;;;;161.85;45.60;;;;;;;;;;6171196;28;20521;-67
2022/10/01 07:18:13;;;;;;;160.55;46.63;;;;;;;;;;6167009;28;20077;-71
2022/10/01 07:21:13;;;;;;;172.80;48.03;;;;;;;;;;6168157;28;20055;-66
2022/10/01 07:24:14;;;;;;;201.43;54.00;;;;;;;;;;6167257;28;20046;-67
2022/10/01 07:27:15;;;;;;;301.35;78.45;;;;;;;;;;6167616;28;20491;-69
2022/10/01 07:30:15;;;;;;;203.85;54.60;;;;;;;;;;6166430;28;20071;-66
2022/10/01 07:33:19;;;;;;;188.93;48.92;;;;;;;;;;6161019;28;20053;-66
2022/10/01 07:36:20;;;;;;;165.75;47.38;;;;;;;;;;6163396;28;20491;-68
2022/10/01 07:39:23;;;;;;;161.20;47.92;;;;;;;;;;6158837;28;20063;-69
2022/10/01 07:42:26;;;;;;;170.95;49.22;;;;;;;;;;6157945;28;20078;-69
2022/10/01 07:45:26;;;;;;;184.50;50.33;;;;;;;;;;6158220;28;20457;-67
2022/10/01 07:48:27;;;;;;;184.13;51.00;;;;;;;;;;6156199;28;20066;-67
2022/10/01 07:51:28;;;;;;;163.38;49.75;;;;;;;;;;6156998;28;20054;-68
2022/10/01 07:54:29;;;;;;;167.57;48.47;;;;;;;;;;6157636;28;20072;-67
2022/10/01 07:57:30;;;;;;;191.10;54.85;;;;;;;;;;6157994;28;20055;-69
2022/10/01 08:00:34;;;;;;;211.73;59.17;;;;;;;;;;6160451;28;20058;-68
2022/10/01 08:03:34;;;;;;;232.75;57.08;;;;;;;;;;6160254;28;20039;-67
2022/10/01 08:06:37;;;;;;;209.70;56.70;;;;;;;;;;6162644;28;20043;-68
2022/10/01 08:09:38;;;;;;;181.38;49.85;;;;;;;;;;6158101;28;20111;-67
2022/10/01 08:12:41;;;;;;;182.00;49.72;;;;;;;;;;6159290;28;20125;-67
2022/10/01 08:15:44;;;;;;;196.75;56.47;;;;;;;;;;6157480;28;20043;-66
2022/10/01 08:18:45;;;;;;;187.02;54.72;;;;;;;;;;6157602;28;20422;-69
2022/10/01 08:21:45;;;;;;;182.63;52.92;;;;;;;;;;6157159;28;20142;-65
2022/10/01 08:24:46;;;;;;;183.57;48.83;;;;;;;;;;6158949;28;20035;-67
2022/10/01 08:27:47;;;;;;;185.50;53.28;;;;;;;;;;6161053;28;20061;-67
2022/10/01 08:30:47;;;;;;;183.85;53.13;;;;;;;;;;6158615;28;20054;-65
2022/10/01 08:33:48;;;;;;;195.63;59.05;;;;;;;;;;6160623;28;20041;-67
2022/10/01 08:36:52;;;;;;;182.73;52.15;;;;;;;;;;6169197;28;20050;-69
2022/10/01 08:39:54;;;;;;;184.50;52.45;;;;;;;;;;6162262;28;20059;-67
2022/10/01 08:43:31;;;;;;;174.25;55.15;;;;;;;;;;6163354;28;20485;-67
2022/10/01 08:46:35;;;;;;;183.52;55.13;;;;;;;;;;6163650;28;20082;-68
2022/10/01 08:49:41;;;;;;;180.13;55.80;;;;;;;;;;6164382;28;20109;-68
2022/10/01 08:52:54;;;;;;;169.48;52.55;;;;;;;;;;6165140;28;20141;-67
2022/10/01 08:55:56;;;;;;;180.13;50.73;;;;;;;;;;6164058;28;20043;-68
2022/10/01 08:59:01;;;;;;;165.52;49.15;;;;;;;;;;6162896;28;20062;-67
2022/10/01 09:02:14;;;;;;;160.50;48.63;;;;;;;;;;6161695;28;20071;-68
2022/10/01 09:05:33;;;;;;;167.75;51.65;;;;;;;;;;6162953;28;20742;-67
2022/10/01 09:08:49;;;;;;;163.98;49.42;;;;;;;;;;6161135;28;20142;-64
2022/10/01 09:12:08;;;;;;;147.77;45.83;;;;;;;;;;6161004;28;20046;-65
2022/10/01 09:15:44;;;;;;;149.93;47.97;;;;;;;;;;6160476;28;20050;-65
2022/10/01 09:19:02;;;;;;;175.95;51.00;;;;;;;;;;6161128;28;20078;-68
2022/10/01 09:22:36;;;;;;;159.93;51.63;;;;;;;;;;6165653;28;20051;-67
2022/10/01 09:25:39;;;;;;;173.98;51.80;;;;;;;;;;6168263;28;20351;-68
2022/10/01 09:28:40;;;;;;;146.63;45.40;;;;;;;;;;6170699;28;20137;-69
2022/10/01 09:31:46;;;;;;;147.95;48.30;;;;;;;;;;6169823;28;20293;-69
2022/10/01 09:34:46;;;;;;;130.43;42.58;;;;;;;;;;6164429;28;20133;-67
2022/10/01 09:38:06;;;;;;;154.93;45.72;;;;;;;;;;6162663;28;20069;-68
2022/10/01 09:41:09;;;;;;;146.25;45.08;;;;;;;;;;6160765;28;20125;-68
2022/10/01 09:44:25;;;;;;;156.85;46.13;;;;;;;;;;6163050;28;20078;-66
2022/10/01 09:47:26;;;;;;;155.05;49.03;;;;;;;;;;6162338;28;20083;-68
2022/10/01 09:50:40;;;;;;;149.30;45.90;;;;;;;;;;6163054;28;20069;-69
2022/10/01 09:53:47;;;;;;;157.07;49.20;;;;;;;;;;6159146;28;20834;-70
2022/10/01 09:57:03;;;;;;;158.35;48.25;;;;;;;;;;6159997;28;20054;-68
2022/10/01 10:00:13;;;;;;;156.20;48.17;;;;;;;;;;6159824;28;20069;-68
2022/10/01 10:03:27;;;;;;;170.18;51.60;;;;;;;;;;6163834;28;20050;-68
2022/10/01 10:06:30;;;;;;;162.70;51.00;;;;;;;;;;6167918;28;20050;-64
2022/10/01 10:09:32;;;;;;;159.02;51.35;;;;;;;;;;6168492;28;20058;-66
2022/10/01 10:12:33;;;;;;;169.30;53.95;;;;;;;;;;6168358;28;20058;-70
2022/10/01 10:15:42;;;;;;;154.57;49.67;;;;;;;;;;6165975;28;20528;-66
2022/10/01 10:18:47;;;;;;;163.93;52.50;;;;;;;;;;6167883;28;20043;-67
2022/10/01 10:21:56;;;;;;;163.35;50.70;;;;;;;;;;6168507;28;20526;-66
2022/10/01 10:25:09;;;;;;;157.63;52.25;;;;;;;;;;6168466;28;20042;-67
2022/10/01 10:28:18;;;;;;;;;;;;;;;;;;6165825;28;20085;-65
2022/10/01 10:31:23;;;;;;;160.52;47.35;;;;;;;;;;6168102;28;20043;-67
2022/10/01 10:34:47;;;;;;;156.02;49.67;;;;;;;;;;6168664;28;20086;-67
2022/10/01 10:37:53;;;;;;;165.15;55.42;;;;;;;;;;6167579;28;20130;-66
2022/10/01 10:40:54;;;;;;;164.80;52.25;;;;;;;;;;6166740;28;20049;-65
2022/10/01 10:43:59;;;;;;;171.10;55.97;;;;;;;;;;6168006;28;20050;-63
2022/10/01 10:47:04;;;;;;;169.57;56.67;;;;;;;;;;6167735;28;20395;-66
2022/10/01 10:50:05;;;;;;;166.70;54.22;;;;;;;;;;6166493;28;20162;-65
2022/10/01 10:53:20;;;;;;;153.70;49.93;;;;;;;;;;6167901;28;20038;-63
2022/10/01 10:56:23;;;;;;;142.82;48.38;;;;;;;;;;6167706;28;20506;-66
2022/10/01 10:59:24;;;;;;;152.18;50.67;;;;;;;;;;6167194;28;21704;-62
2022/10/01 11:02:31;;;;;;;149.23;50.17;;;;;;;;;;6166617;28;20070;-64
2022/10/01 11:05:40;;;;;;;145.00;47.25;;;;;;;;;;6167670;28;20046;-67
2022/10/01 11:08:41;;;;;;;148.05;48.88;;;;;;;;;;6167489;28;20129;-64
2022/10/01 11:11:54;;;;;;;150.40;48.63;;;;;;;;;;6167104;28;20043;-68
2022/10/01 11:15:40;;;;;;;126.15;41.50;;;;;;;;;;6167101;28;20795;-65
2022/10/01 11:19:01;;;;;;;126.68;40.15;;;;;;;;;;6158534;28;20560;-63
2022/10/01 11:22:14;;;;;;;127.18;42.47;;;;;;;;;;6156196;28;20065;-65
2022/10/01 11:25:35;;;;;;;118.43;41.53;;;;;;;;;;6156230;28;20066;-64
2022/10/01 11:29:10;;;;;;;116.97;39.63;;;;;;;;;;6154685;28;20046;-62
2022/10/01 11:32:25;;;;;;;91.50;31.80;;;;;;;;;;6156927;28;20417;-62
2022/10/01 11:35:41;;;;;;;107.82;35.20;;;;;;;;;;6159295;28;20205;-61
2022/10/01 11:39:03;;;;;;;115.82;39.72;;;;;;;;;;6155095;28;20050;-62
2022/10/01 11:42:23;;;;;;;121.38;40.63;;;;;;;;;;6152174;28;20571;-61
2022/10/01 11:45:30;;;;;;;114.57;41.60;;;;;;;;;;6155709;28;20248;-63
2022/10/01 11:48:41;;;;;;;107.78;37.15;;;;;;;;;;6152589;28;20116;-62
2022/10/01 11:51:48;;;;;;;114.75;39.70;;;;;;;;;;6155111;28;20752;-61
2022/10/01 11:58:50;;;;;;;113.20;38.60;;;;;;;;;;6153028;28;20541;-64
2022/10/01 12:02:02;;;;;;;110.05;38.47;;;;;;;;;;6154299;28;20062;-62
2022/10/01 12:05:18;;;;;;;125.97;41.90;;;;;;;;;;6156199;28;20054;-63
2022/10/01 12:08:29;;;;;;;126.63;43.83;;;;;;;;;;6154418;28;20384;-63
2022/10/01 12:11:35;;;;;;;120.75;43.33;;;;;;;;;;6161847;28;20062;-63
2022/10/01 12:15:09;;;;;;;114.25;39.10;;;;;;;;;;6162388;28;20586;-64
2022/10/01 12:18:34;;;;;;;113.10;38.67;;;;;;;;;;6158992;28;20960;-62
2022/10/01 12:21:47;;;;;;;116.00;40.63;;;;;;;;;;6144062;28;20589;-61
2022/10/01 12:24:49;;;;;;;113.72;39.25;;;;;;;;;;6159187;28;20690;-61
2022/10/01 12:28:09;;;;;;;121.50;44.65;;;;;;;;;;6161989;28;20046;-60
2022/10/01 12:31:40;;;;;;;117.22;39.75;;;;;;;;;;6162179;28;20061;-62
2022/10/01 12:35:40;;;;;;;109.07;39.55;;;;;;;;;;6125212;28;20097;-62
2022/10/01 12:38:56;;;;;;;116.32;41.85;;;;;;;;;;6126645;28;20047;-62
2022/10/01 12:42:02;;;;;;;111.32;39.95;;;;;;;;;;6136923;28;20976;-61
2022/10/01 12:45:45;;;;;;;116.45;42.28;;;;;;;;;;6162143;28;20061;-62
2022/10/01 12:49:21;;;;;;;135.55;46.97;;;;;;;;;;6160069;28;20042;-63
2022/10/01 12:52:42;;;;;;;165.63;53.05;;;;;;;;;;6159244;28;20570;-61
2022/10/01 12:56:12;;;;;;;173.25;57.15;;;;;;;;;;6159625;28;20049;-63
2022/10/01 12:59:36;;;;;;;108.15;44.80;;;;;;;;;;6151544;28;20043;-63
2022/10/01 13:03:09;;;;;;;86.22;32.03;;;;;;;;;;6160529;28;20070;-60
2022/10/01 13:06:29;;;;;;;88.70;33.33;;;;;;;;;;6159392;28;20065;-61
2022/10/01 13:10:17;;;;;;;88.65;33.50;;;;;;;;;;6158447;28;20108;-61
2022/10/01 13:13:24;;;;;;;98.30;36.33;;;;;;;;;;6158746;28;20057;-59
2022/10/01 13:16:37;;;;;;;114.57;39.33;;;;;;;;;;6158442;28;20157;-61
2022/10/01 13:19:56;;;;;;;112.72;39.38;;;;;;;;;;6158281;28;20173;-60
2022/10/01 13:23:07;;;;;;;118.72;40.75;;;;;;;;;;6159375;28;20065;-61
2022/10/01 13:26:17;;;;;;;128.23;42.42;;;;;;;;;;6159203;28;20149;-60
2022/10/01 13:29:36;;;;;;;141.02;47.22;;;;;;;;;;6154609;28;20053;-61
2022/10/01 13:32:53;;;;;;;111.85;41.13;;;;;;;;;;6158936;28;20137;-61
2022/10/01 13:36:05;;;;;;;103.43;37.47;;;;;;;;;;6157615;28;20146;-61
2022/10/01 13:39:07;;;;;;;115.57;42.58;;;;;;;;;;6153949;28;20051;-61
2022/10/01 13:42:21;;;;;;;178.60;60.60;;;;;;;;;;6157586;28;20126;-62
2022/10/01 13:45:29;;;;;;;194.35;64.15;;;;;;;;;;6156233;28;20047;-60
2022/10/01 13:48:34;;;;;;;146.98;51.30;;;;;;;;;;6156434;28;20510;-60
2022/10/01 13:51:36;;;;;;;204.82;68.40;;;;;;;;;;6157391;28;20065;-62
2022/10/01 13:54:51;;;;;;;120.35;42.85;;;;;;;;;;6158402;28;20133;-62
2022/10/01 13:58:01;;;;;;;99.07;39.08;;;;;;;;;;6158017;28;20054;-61
2022/10/01 14:01:05;;;;;;;97.95;37.17;;;;;;;;;;6157046;28;20062;-60
2022/10/01 14:04:18;;;;;;;93.22;35.63;;;;;;;;;;6156673;28;20490;-60
2022/10/01 14:07:26;;;;;;;89.25;36.72;;;;;;;;;;6157924;28;20134;-60
2022/10/01 14:15:57;;;;;;;96.10;37.10;;;;;;;;;;6156706;28;20453;-61
2022/10/01 14:17:33;;;;;;;95.03;36.30;;;;;;;;;;6157648;28;20047;-61
2022/10/01 14:20:58;;;;;;;107.70;41.13;;;;;;;;;;6157377;28;20063;-61
2022/10/01 14:24:06;;;;;;;114.07;40.67;;;;;;;;;;6157353;28;20058;-62
2022/10/01 14:27:22;;;;;;;152.55;53.47;;;;;;;;;;6157310;28;20182;-68
2022/10/01 14:30:26;;;;;;;132.73;51.67;;;;;;;;;;6153707;28;20047;-65
2022/10/01 14:33:36;;;;;;;115.25;42.85;;;;;;;;;;6155648;28;20116;-61
2022/10/01 14:36:42;;;;;;;89.75;33.58;;;;;;;;;;6156815;28;20513;-61
2022/10/01 14:39:43;;;;;;;82.57;33.90;;;;;;;;;;6154801;28;20043;-68
2022/10/01 14:42:54;;;;;;;88.57;35.45;;;;;;;;;;6157830;28;20093;-62
2022/10/01 14:45:56;;;;;;;78.30;33.57;;;;;;;;;;6157116;28;20056;-60
2022/10/01 14:48:58;;;;;;;76.55;33.33;;;;;;;;;;6155421;28;20042;-63
2022/10/01 14:52:16;;;;;;;77.90;31.70;;;;;;;;;;6157944;28;20038;-60
2022/10/01 14:55:21;;;;;;;64.93;26.13;;;;;;;;;;6156896;28;20059;-61
2022/10/01 14:58:52;;;;;;;69.15;28.38;;;;;;;;;;6157279;28;20074;-61
2022/10/01 15:01:57;;;;;;;73.30;26.55;;;;;;;;;;6149834;28;20054;-61
2022/10/01 15:04:58;;;;;;;73.22;29.38;;;;;;;;;;6157052;28;20093;-62
2022/10/01 15:08:22;;;;;;;69.80;28.35;;;;;;;;;;6151842;28;20058;-62
2022/10/01 15:11:26;;;;;;;73.50;28.55;;;;;;;;;;6154938;28;20155;-62
2022/10/01 15:14:26;;;;;;;75.53;28.75;;;;;;;;;;6153287;28;20082;-60
2022/10/01 15:17:27;;;;;;;63.92;26.35;;;;;;;;;;6154840;28;20120;-61
2022/10/01 15:20:28;;;;;;;66.13;26.63;;;;;;;;;;6153959;28;20105;-62
2022/10/01 15:23:30;;;;;;;70.65;26.88;;;;;;;;;;6155336;28;20482;-63
2022/10/01 15:26:31;;;;;;;64.10;25.70;;;;;;;;;;6154787;28;20660;-61
2022/10/01 15:29:32;;;;;;;68.22;26.10;;;;;;;;;;6154186;28;20157;-63
2022/10/01 15:32:33;;;;;;;49.10;22.25;;;;;;;;;;6155777;28;20155;-60
2022/10/01 15:35:34;;;;;;;49.78;21.10;;;;;;;;;;6154267;28;20147;-60
2022/10/01 15:38:35;;;;;;;40.33;17.53;;;;;;;;;;6153987;28;20699;-61
2022/10/01 15:41:36;;;;;;;40.65;18.33;;;;;;;;;;6155399;28;20134;-60
2022/10/01 15:44:44;;;;;;;32.73;16.13;;;;;;;;;;6146407;28;20051;-62
2022/10/01 15:47:50;;;;;;;31.10;14.50;;;;;;;;;;6140632;28;20605;-62
2022/10/01 15:50:59;;;;;;;33.30;14.30;;;;;;;;;;6138364;28;20055;-62
2022/10/01 15:54:07;;;;;;;28.00;13.07;;;;;;;;;;6134203;28;20059;-62
2022/10/01 15:57:14;;;;;;;28.65;13.52;;;;;;;;;;6136541;28;20388;-61
2022/10/01 16:00:30;;;;;;;30.92;14.02;;;;;;;;;;6136077;28;20487;-62
2022/10/01 16:04:05;;;;;;;28.70;12.93;;;;;;;;;;6136054;28;20051;-62
2022/10/01 16:07:05;;;;;;;28.48;12.77;;;;;;;;;;6141106;28;20385;-61
2022/10/01 16:10:26;;;;;;;33.70;12.57;;;;;;;;;;6136657;28;20039;-62
2022/10/01 16:13:32;;;;;;;28.15;13.32;;;;;;;;;;6141075;28;20554;-61
2022/10/01 16:16:33;;;;;;;52.75;33.47;;;;;;;;;;6137095;28;20541;-61
2022/10/01 16:19:34;;;;;;;74.35;35.60;;;;;;;;;;6136635;28;20185;-61
2022/10/01 16:22:36;;;;;;;52.70;26.70;;;;;;;;;;6140443;28;20062;-61
2022/10/01 16:25:43;;;;;;;33.50;15.80;;;;;;;;;;6139976;28;20046;-61
2022/10/01 16:28:43;;;;;;;28.63;14.43;;;;;;;;;;6134191;28;20053;-61
2022/10/01 16:31:44;;;;;;;32.15;15.52;;;;;;;;;;6139016;28;20578;-61
2022/10/01 16:34:45;;;;;;;33.53;16.50;;;;;;;;;;6139346;28;20055;-61
2022/10/01 16:37:48;;;;;;;45.05;26.52;;;;;;;;;;6141669;28;20136;-61
2022/10/01 16:40:49;;;;;;;43.15;22.75;;;;;;;;;;6138570;28;20145;-62
2022/10/01 16:43:51;;;;;;;33.05;16.05;;;;;;;;;;6148657;28;20136;-64
2022/10/01 16:46:51;;;;;;;47.03;19.08;;;;;;;;;;6155063;28;20051;-61
2022/10/01 16:49:52;;;;;;;41.63;17.52;;;;;;;;;;6152452;28;20078;-61
2022/10/01 16:52:54;;;;;;;45.15;18.05;;;;;;;;;;6152871;28;20055;-62
2022/10/01 16:55:55;;;;;;;42.40;17.67;;;;;;;;;;6156785;28;20633;-61
2022/10/01 16:58:56;;;;;;;64.80;39.33;;;;;;;;;;6156479;28;20047;-61
2022/10/01 17:01:59;;;;;;;54.80;30.02;;;;;;;;;;6154569;28;20125;-60
2022/10/01 17:04:59;;;;;;;45.95;21.63;;;;;;;;;;6158682;28;20128;-61
2022/10/01 17:08:03;;;;;;;42.53;18.63;;;;;;;;;;6138335;28;20055;-61
2022/10/01 17:11:04;;;;;;;45.60;19.13;;;;;;;;;;6157957;28;20073;-60
2022/10/01 17:14:07;;;;;;;;;;;;;;;;;;6159603;28;20348;-60
2022/10/01 17:17:08;;;;;;;49.17;26.25;;;;;;;;;;6158535;28;19926;-60
2022/10/01 17:20:08;;;;;;;49.03;26.13;;;;;;;;;;6155803;28;20042;-59
2022/10/01 17:23:11;;;;;;;50.67;24.33;;;;;;;;;;6157494;28;20054;-62
2022/10/01 17:26:11;;;;;;;49.85;25.23;;;;;;;;;;6158568;28;20055;-61
2022/10/01 17:29:12;;;;;;;47.25;23.80;;;;;;;;;;6155590;28;20058;-61
2022/10/01 17:32:17;;;;;;;48.50;22.48;;;;;;;;;;6157349;28;20161;-64
2022/10/01 17:35:18;;;;;;;59.13;23.83;;;;;;;;;;6158103;28;20047;-60
2022/10/01 17:38:19;;;;;;;49.92;22.08;;;;;;;;;;6156471;28;20062;-60
2022/10/01 17:41:20;;;;;;;37.67;17.27;;;;;;;;;;6155839;28;20054;-65
2022/10/01 17:44:21;;;;;;;42.47;17.90;;;;;;;;;;6140383;28;20085;-60
2022/10/01 17:47:22;;;;;;;81.15;39.83;;;;;;;;;;6158676;28;20051;-61
2022/10/01 17:50:23;;;;;;;141.20;68.35;;;;;;;;;;6152617;28;20166;-62
2022/10/01 17:53:23;;;;;;;90.25;47.28;;;;;;;;;;6155553;28;20051;-65
2022/10/01 17:56:24;;;;;;;55.20;25.90;;;;;;;;;;6158238;28;20479;-65
2022/10/01 17:59:25;;;;;;;44.78;20.38;;;;;;;;;;6155762;28;20057;-64
2022/10/01 18:02:25;;;;;;;40.58;20.20;;;;;;;;;;6155855;28;20087;-63
2022/10/01 18:05:26;;;;;;;45.72;20.92;;;;;;;;;;6157587;28;20051;-63